Time;durP1;ratioP1;P1;durP2;ratioP2;P2;SDS_P1;SDS_P2;PMS_P1;PMS_P2;Temp;Humidity;BMP_temperature;BMP_pressure;BME280_temperature;BME280_humidity;BME280_pressure;Samples;Min_cycle;Max_cycle;Signal;HPM_P1;HPM_P2
2022/09/04 00:00:56;;;;;;;2.95;2.65;;;;;;;13.11;93.80176;95357.93;;;;
2022/09/04 00:02:05;;;;;;;2.95;2.65;;;;;;;13.11;93.80176;95357.93;;;;
2022/09/04 00:03:21;;;;;;;2.95;2.65;;;;;;;13.11;93.80176;95357.93;;;;
2022/09/04 00:04:33;;;;;;;2.95;2.65;;;;;;;13.11;93.80176;95357.93;;;;
2022/09/04 00:05:41;;;;;;;2.95;2.65;;;;;;;13.11;93.80176;95357.93;;;;
2022/09/04 00:06:48;;;;;;;2.95;2.65;;;;;;;13.11;93.80176;95357.93;;;;
2022/09/04 00:07:58;;;;;;;2.75;2.45;;;;;;;13.07;93.75098;95374;;;;
2022/09/04 00:09:20;;;;;;;2.75;2.45;;;;;;;13.07;93.75098;95374;;;;
2022/09/04 00:10:29;;;;;;;2.75;2.45;;;;;;;13.07;93.75098;95374;;;;
2022/09/04 00:11:37;;;;;;;2.75;2.45;;;;;;;13.07;93.75098;95374;;;;
2022/09/04 00:12:47;;;;;;;2.75;2.45;;;;;;;13.07;93.75098;95374;;;;
2022/09/04 00:13:53;;;;;;;2.75;2.45;;;;;;;13.07;93.75098;95374;;;;
2022/09/04 00:14:57;;;;;;;2.75;2.45;;;;;;;13.07;93.75098;95374;;;;
2022/09/04 00:16:06;;;;;;;2.75;2.45;;;;;;;13.07;93.75098;95374;;;;
2022/09/04 00:17:12;;;;;;;2.75;2.45;;;;;;;13.07;93.75098;95374;;;;
2022/09/04 00:18:19;;;;;;;2.65;2.45;;;;;;;13.07;93.92285;95365.12;;;;
2022/09/04 00:19:29;;;;;;;2.65;2.45;;;;;;;13.07;93.92285;95365.12;;;;
2022/09/04 00:20:36;;;;;;;2.65;2.45;;;;;;;13.07;93.92285;95365.12;;;;
2022/09/04 00:21:42;;;;;;;2.65;2.45;;;;;;;13.07;93.92285;95365.12;;;;
2022/09/04 00:22:51;;;;;;;2.65;2.45;;;;;;;13.07;93.92285;95365.12;;;;
2022/09/04 00:23:58;;;;;;;2.65;2.45;;;;;;;13.07;93.92285;95365.12;;;;
2022/09/04 00:25:04;;;;;;;2.65;2.45;;;;;;;13.07;93.92285;95365.12;;;;
2022/09/04 00:26:12;;;;;;;2.65;2.45;;;;;;;13.07;93.92285;95365.12;;;;
2022/09/04 00:27:24;;;;;;;2.65;2.45;;;;;;;13.07;93.92285;95365.12;;;;
2022/09/04 00:28:27;;;;;;;2.65;2.45;;;;;;;13.07;93.92285;95365.12;;;;
2022/09/04 00:29:35;;;;;;;2.8;2.5;;;;;;;12.97;93.80469;95382.47;;;;
2022/09/04 00:30:43;;;;;;;2.8;2.5;;;;;;;12.97;93.80469;95382.47;;;;
2022/09/04 00:31:52;;;;;;;2.8;2.5;;;;;;;12.97;93.80469;95382.47;;;;
2022/09/04 00:33:00;;;;;;;2.8;2.5;;;;;;;12.97;93.80469;95382.47;;;;
2022/09/04 00:34:08;;;;;;;2.8;2.5;;;;;;;12.97;93.80469;95382.47;;;;
2022/09/04 00:35:18;;;;;;;2.8;2.5;;;;;;;12.97;93.80469;95382.47;;;;
2022/09/04 00:36:24;;;;;;;2.8;2.5;;;;;;;12.97;93.80469;95382.47;;;;
2022/09/04 00:37:27;;;;;;;2.8;2.5;;;;;;;12.97;93.80469;95382.47;;;;
2022/09/04 00:38:36;;;;;;;2.8;2.5;;;;;;;12.97;93.80469;95382.47;;;;
2022/09/04 00:39:43;;;;;;;2.95;2.7;;;;;;;12.98;94.08594;95384.61;;;;
2022/09/04 00:40:50;;;;;;;2.95;2.7;;;;;;;12.98;94.08594;95384.61;;;;
2022/09/04 00:42:01;;;;;;;2.95;2.7;;;;;;;12.98;94.08594;95384.61;;;;
2022/09/04 00:43:20;;;;;;;2.95;2.7;;;;;;;12.98;94.08594;95384.61;;;;
2022/09/04 00:44:48;;;;;;;2.95;2.7;;;;;;;12.98;94.08594;95384.61;;;;
2022/09/04 00:46:06;;;;;;;2.95;2.7;;;;;;;12.98;94.08594;95384.61;;;;
2022/09/04 00:47:33;;;;;;;2.95;2.7;;;;;;;12.98;94.08594;95384.61;;;;
2022/09/04 00:48:49;;;;;;;2.95;2.7;;;;;;;12.98;94.08594;95384.61;;;;
2022/09/04 00:50:39;;;;;;;2.7;2.5;;;;;;;12.98;94.17383;95384.11;;;;
2022/09/04 00:51:58;;;;;;;2.7;2.5;;;;;;;12.98;94.17383;95384.11;;;;
2022/09/04 00:53:11;;;;;;;2.7;2.5;;;;;;;12.98;94.17383;95384.11;;;;
2022/09/04 00:54:44;;;;;;;2.7;2.5;;;;;;;12.98;94.17383;95384.11;;;;
2022/09/04 00:56:00;;;;;;;2.7;2.5;;;;;;;12.98;94.17383;95384.11;;;;
2022/09/04 00:57:14;;;;;;;2.7;2.5;;;;;;;12.98;94.17383;95384.11;;;;
2022/09/04 00:58:34;;;;;;;2.7;2.5;;;;;;;12.98;94.17383;95384.11;;;;
2022/09/04 00:59:49;;;;;;;2.7;2.5;;;;;;;12.98;94.17383;95384.11;;;;
2022/09/04 01:01:04;;;;;;;3;2.75;;;;;;;13.04;94.41211;95391.19;;;;
2022/09/04 01:02:04;;;;;;;3;2.75;;;;;;;13.04;94.41211;95391.19;;;;
2022/09/04 01:03:11;;;;;;;3;2.75;;;;;;;13.04;94.41211;95391.19;;;;
2022/09/04 01:04:23;;;;;;;3;2.75;;;;;;;13.04;94.41211;95391.19;;;;
2022/09/04 01:05:34;;;;;;;3;2.75;;;;;;;13.04;94.41211;95391.19;;;;
2022/09/04 01:06:45;;;;;;;3;2.75;;;;;;;13.04;94.41211;95391.19;;;;
2022/09/04 01:07:58;;;;;;;3;2.75;;;;;;;13.04;94.41211;95391.19;;;;
2022/09/04 01:09:09;;;;;;;3;2.75;;;;;;;13.04;94.41211;95391.19;;;;
2022/09/04 01:10:54;;;;;;;3;2.75;;;;;;;13.04;94.41211;95391.19;;;;
2022/09/04 01:12:12;;;;;;;2.5;2.3;;;;;;;13.01;94.30664;95400.11;;;;
2022/09/04 01:13:24;;;;;;;2.5;2.3;;;;;;;13.01;94.30664;95400.11;;;;
2022/09/04 01:14:34;;;;;;;2.5;2.3;;;;;;;13.01;94.30664;95400.11;;;;
2022/09/04 01:15:40;;;;;;;2.5;2.3;;;;;;;13.01;94.30664;95400.11;;;;
2022/09/04 01:16:46;;;;;;;2.5;2.3;;;;;;;13.01;94.30664;95400.11;;;;
2022/09/04 01:17:51;;;;;;;2.5;2.3;;;;;;;13.01;94.30664;95400.11;;;;
2022/09/04 01:19:01;;;;;;;2.5;2.3;;;;;;;13.01;94.30664;95400.11;;;;
2022/09/04 01:20:12;;;;;;;2.5;2.3;;;;;;;13.01;94.30664;95400.11;;;;
2022/09/04 01:21:19;;;;;;;2.5;2.3;;;;;;;13.01;94.30664;95400.11;;;;
2022/09/04 01:22:46;;;;;;;4.6;2.7;;;;;;;13.07;94.53613;95404.01;;;;
2022/09/04 01:23:58;;;;;;;4.6;2.7;;;;;;;13.07;94.53613;95404.01;;;;
2022/09/04 01:25:18;;;;;;;4.6;2.7;;;;;;;13.07;94.53613;95404.01;;;;
2022/09/04 01:26:31;;;;;;;4.6;2.7;;;;;;;13.07;94.53613;95404.01;;;;
2022/09/04 01:27:39;;;;;;;4.6;2.7;;;;;;;13.07;94.53613;95404.01;;;;
2022/09/04 01:28:48;;;;;;;4.6;2.7;;;;;;;13.07;94.53613;95404.01;;;;
2022/09/04 01:30:03;;;;;;;4.6;2.7;;;;;;;13.07;94.53613;95404.01;;;;
2022/09/04 01:31:08;;;;;;;4.6;2.7;;;;;;;13.07;94.53613;95404.01;;;;
2022/09/04 01:32:20;;;;;;;4.6;2.7;;;;;;;13.07;94.53613;95404.01;;;;
2022/09/04 01:33:31;;;;;;;3.3;2.8;;;;;;;13.07;94.53613;95411.56;;;;
2022/09/04 01:34:41;;;;;;;3.3;2.8;;;;;;;13.07;94.53613;95411.56;;;;
2022/09/04 01:35:52;;;;;;;3.3;2.8;;;;;;;13.07;94.53613;95411.56;;;;
2022/09/04 01:37:03;;;;;;;3.3;2.8;;;;;;;13.07;94.53613;95411.56;;;;
2022/09/04 01:38:18;;;;;;;3.3;2.8;;;;;;;13.07;94.53613;95411.56;;;;
2022/09/04 01:39:30;;;;;;;3.3;2.8;;;;;;;13.07;94.53613;95411.56;;;;
2022/09/04 01:40:35;;;;;;;3.3;2.8;;;;;;;13.07;94.53613;95411.56;;;;
2022/09/04 01:41:42;;;;;;;3.3;2.8;;;;;;;13.07;94.53613;95411.56;;;;
2022/09/04 01:42:49;;;;;;;3.3;2.8;;;;;;;13.07;94.53613;95411.56;;;;
2022/09/04 01:43:54;;;;;;;2.95;2.65;;;;;;;13.15;94.69238;95414.31;;;;
2022/09/04 01:44:55;;;;;;;2.95;2.65;;;;;;;13.15;94.69238;95414.31;;;;
2022/09/04 01:45:56;;;;;;;2.95;2.65;;;;;;;13.15;94.69238;95414.31;;;;
2022/09/04 01:47:13;;;;;;;2.95;2.65;;;;;;;13.15;94.69238;95414.31;;;;
2022/09/04 01:48:20;;;;;;;2.95;2.65;;;;;;;13.15;94.69238;95414.31;;;;
2022/09/04 01:49:31;;;;;;;2.95;2.65;;;;;;;13.15;94.69238;95414.31;;;;
2022/09/04 01:50:36;;;;;;;2.95;2.65;;;;;;;13.15;94.69238;95414.31;;;;
2022/09/04 01:51:42;;;;;;;2.95;2.65;;;;;;;13.15;94.69238;95414.31;;;;
2022/09/04 01:52:52;;;;;;;2.95;2.65;;;;;;;13.15;94.69238;95414.31;;;;
2022/09/04 01:53:59;;;;;;;2.95;2.65;;;;;;;13.15;94.69238;95414.31;;;;
2022/09/04 01:55:16;;;;;;;3;2.5;;;;;;;13.15;94.69238;95414.31;;;;
2022/09/04 01:56:25;;;;;;;3;2.5;;;;;;;13.15;94.69238;95414.31;;;;
2022/09/04 01:57:37;;;;;;;3;2.5;;;;;;;13.15;94.69238;95414.31;;;;
2022/09/04 01:58:49;;;;;;;3;2.5;;;;;;;13.15;94.69238;95414.31;;;;
2022/09/04 01:59:55;;;;;;;3;2.5;;;;;;;13.15;94.69238;95414.31;;;;
2022/09/04 02:01:05;;;;;;;3;2.5;;;;;;;13.15;94.69238;95414.31;;;;
2022/09/04 02:02:14;;;;;;;3;2.5;;;;;;;13.15;94.69238;95414.31;;;;
2022/09/04 02:03:22;;;;;;;3;2.5;;;;;;;13.15;94.69238;95414.31;;;;
2022/09/04 02:04:28;;;;;;;3;2.5;;;;;;;13.15;94.69238;95414.31;;;;
2022/09/04 02:05:36;;;;;;;3.1;2.8;;;;;;;13.19;94.85254;95425.3;;;;
2022/09/04 02:06:49;;;;;;;3.1;2.8;;;;;;;13.19;94.85254;95425.3;;;;
2022/09/04 02:07:56;;;;;;;3.1;2.8;;;;;;;13.19;94.85254;95425.3;;;;
2022/09/04 02:09:10;;;;;;;3.1;2.8;;;;;;;13.19;94.85254;95425.3;;;;
2022/09/04 02:10:24;;;;;;;3.1;2.8;;;;;;;13.19;94.85254;95425.3;;;;
2022/09/04 02:11:35;;;;;;;3.1;2.8;;;;;;;13.19;94.85254;95425.3;;;;
2022/09/04 02:12:41;;;;;;;3.1;2.8;;;;;;;13.19;94.85254;95425.3;;;;
2022/09/04 02:13:55;;;;;;;3.1;2.8;;;;;;;13.19;94.85254;95425.3;;;;
2022/09/04 02:15:08;;;;;;;3.1;2.8;;;;;;;13.19;94.85254;95425.3;;;;
2022/09/04 02:16:18;;;;;;;2.95;2.65;;;;;;;13.12;94.77246;95419.25;;;;
2022/09/04 02:17:31;;;;;;;2.95;2.65;;;;;;;13.12;94.77246;95419.25;;;;
2022/09/04 02:18:43;;;;;;;2.95;2.65;;;;;;;13.12;94.77246;95419.25;;;;
2022/09/04 02:19:55;;;;;;;2.95;2.65;;;;;;;13.12;94.77246;95419.25;;;;
2022/09/04 02:21:22;;;;;;;2.95;2.65;;;;;;;13.12;94.77246;95419.25;;;;
2022/09/04 02:22:30;;;;;;;2.95;2.65;;;;;;;13.12;94.77246;95419.25;;;;
2022/09/04 02:23:38;;;;;;;2.95;2.65;;;;;;;13.12;94.77246;95419.25;;;;
2022/09/04 02:24:46;;;;;;;2.95;2.65;;;;;;;13.12;94.77246;95419.25;;;;
2022/09/04 02:25:56;;;;;;;2.95;2.65;;;;;;;13.12;94.77246;95419.25;;;;
2022/09/04 02:27:06;;;;;;;3.15;2.5;;;;;;;13.09;94.92773;95416.14;;;;
2022/09/04 02:28:11;;;;;;;3.15;2.5;;;;;;;13.09;94.92773;95416.14;;;;
2022/09/04 02:29:25;;;;;;;3.15;2.5;;;;;;;13.09;94.92773;95416.14;;;;
2022/09/04 02:30:32;;;;;;;3.15;2.5;;;;;;;13.09;94.92773;95416.14;;;;
2022/09/04 02:31:39;;;;;;;3.15;2.5;;;;;;;13.09;94.92773;95416.14;;;;
2022/09/04 02:32:48;;;;;;;3.15;2.5;;;;;;;13.09;94.92773;95416.14;;;;
2022/09/04 02:33:59;;;;;;;3.15;2.5;;;;;;;13.09;94.92773;95416.14;;;;
2022/09/04 02:35:08;;;;;;;3.15;2.5;;;;;;;13.09;94.92773;95416.14;;;;
2022/09/04 02:36:17;;;;;;;3.15;2.5;;;;;;;13.09;94.92773;95416.14;;;;
2022/09/04 02:37:24;;;;;;;2.95;2.75;;;;;;;12.98;94.81738;95415.53;;;;
2022/09/04 02:38:36;;;;;;;2.95;2.75;;;;;;;12.98;94.81738;95415.53;;;;
2022/09/04 02:39:46;;;;;;;2.95;2.75;;;;;;;12.98;94.81738;95415.53;;;;
2022/09/04 02:40:58;;;;;;;2.95;2.75;;;;;;;12.98;94.81738;95415.53;;;;
2022/09/04 02:42:07;;;;;;;2.95;2.75;;;;;;;12.98;94.81738;95415.53;;;;
2022/09/04 02:43:14;;;;;;;2.95;2.75;;;;;;;12.98;94.81738;95415.53;;;;
2022/09/04 02:44:32;;;;;;;2.95;2.75;;;;;;;12.98;94.81738;95415.53;;;;
2022/09/04 02:45:41;;;;;;;2.95;2.75;;;;;;;12.98;94.81738;95415.53;;;;
2022/09/04 02:46:48;;;;;;;2.95;2.75;;;;;;;12.98;94.81738;95415.53;;;;
2022/09/04 02:48:02;;;;;;;4.95;2.7;;;;;;;12.96;95.0498;95421.17;;;;
2022/09/04 02:49:13;;;;;;;4.95;2.7;;;;;;;12.96;95.0498;95421.17;;;;
2022/09/04 02:50:23;;;;;;;4.95;2.7;;;;;;;12.96;95.0498;95421.17;;;;
2022/09/04 02:51:38;;;;;;;4.95;2.7;;;;;;;12.96;95.0498;95421.17;;;;
2022/09/04 02:52:55;;;;;;;4.95;2.7;;;;;;;12.96;95.0498;95421.17;;;;
2022/09/04 02:54:06;;;;;;;4.95;2.7;;;;;;;12.96;95.0498;95421.17;;;;
2022/09/04 02:55:17;;;;;;;4.95;2.7;;;;;;;12.96;95.0498;95421.17;;;;
2022/09/04 02:56:30;;;;;;;4.95;2.7;;;;;;;12.96;95.0498;95421.17;;;;
2022/09/04 02:57:42;;;;;;;4.95;2.7;;;;;;;12.96;95.0498;95421.17;;;;
2022/09/04 02:58:56;;;;;;;3.75;2.9;;;;;;;12.9;95.02637;95423.27;;;;
2022/09/04 03:00:18;;;;;;;3.75;2.9;;;;;;;12.9;95.02637;95423.27;;;;
2022/09/04 03:01:21;;;;;;;3.75;2.9;;;;;;;12.9;95.02637;95423.27;;;;
2022/09/04 03:02:27;;;;;;;3.75;2.9;;;;;;;12.9;95.02637;95423.27;;;;
2022/09/04 03:03:33;;;;;;;3.75;2.9;;;;;;;12.9;95.02637;95423.27;;;;
2022/09/04 03:04:38;;;;;;;3.75;2.9;;;;;;;12.9;95.02637;95423.27;;;;
2022/09/04 03:05:48;;;;;;;3.75;2.9;;;;;;;12.9;95.02637;95423.27;;;;
2022/09/04 03:06:56;;;;;;;3.75;2.9;;;;;;;12.9;95.02637;95423.27;;;;
2022/09/04 03:08:07;;;;;;;3.75;2.9;;;;;;;12.9;95.02637;95423.27;;;;
2022/09/04 03:09:14;;;;;;;4.45;2.85;;;;;;;12.87;95.13672;95422.52;;;;
2022/09/04 03:10:22;;;;;;;4.45;2.85;;;;;;;12.87;95.13672;95422.52;;;;
2022/09/04 03:11:30;;;;;;;4.45;2.85;;;;;;;12.87;95.13672;95422.52;;;;
2022/09/04 03:12:37;;;;;;;4.45;2.85;;;;;;;12.87;95.13672;95422.52;;;;
2022/09/04 03:13:44;;;;;;;4.45;2.85;;;;;;;12.87;95.13672;95422.52;;;;
2022/09/04 03:14:50;;;;;;;4.45;2.85;;;;;;;12.87;95.13672;95422.52;;;;
2022/09/04 03:15:58;;;;;;;4.45;2.85;;;;;;;12.87;95.13672;95422.52;;;;
2022/09/04 03:17:08;;;;;;;4.45;2.85;;;;;;;12.87;95.13672;95422.52;;;;
2022/09/04 03:18:16;;;;;;;4.45;2.85;;;;;;;12.87;95.13672;95422.52;;;;
2022/09/04 03:19:24;;;;;;;3.1;2.85;;;;;;;12.76;95.07129;95424.05;;;;
2022/09/04 03:20:33;;;;;;;3.1;2.85;;;;;;;12.76;95.07129;95424.05;;;;
2022/09/04 03:21:41;;;;;;;3.1;2.85;;;;;;;12.76;95.07129;95424.05;;;;
2022/09/04 03:22:51;;;;;;;3.1;2.85;;;;;;;12.76;95.07129;95424.05;;;;
2022/09/04 03:23:57;;;;;;;3.1;2.85;;;;;;;12.76;95.07129;95424.05;;;;
2022/09/04 03:25:04;;;;;;;3.1;2.85;;;;;;;12.76;95.07129;95424.05;;;;
2022/09/04 03:26:24;;;;;;;3.1;2.85;;;;;;;12.76;95.07129;95424.05;;;;
2022/09/04 03:27:28;;;;;;;3.1;2.85;;;;;;;12.76;95.07129;95424.05;;;;
2022/09/04 03:28:32;;;;;;;3.1;2.85;;;;;;;12.76;95.07129;95424.05;;;;
2022/09/04 03:29:44;;;;;;;3.1;2.85;;;;;;;12.76;95.07129;95424.05;;;;
2022/09/04 03:30:49;;;;;;;3.3;3;;;;;;;12.72;95.24414;95434.42;;;;
2022/09/04 03:31:52;;;;;;;3.3;3;;;;;;;12.72;95.24414;95434.42;;;;
2022/09/04 03:33:02;;;;;;;3.3;3;;;;;;;12.72;95.24414;95434.42;;;;
2022/09/04 03:34:10;;;;;;;3.3;3;;;;;;;12.72;95.24414;95434.42;;;;
2022/09/04 03:35:23;;;;;;;3.3;3;;;;;;;12.72;95.24414;95434.42;;;;
2022/09/04 03:36:32;;;;;;;3.3;3;;;;;;;12.72;95.24414;95434.42;;;;
2022/09/04 03:37:40;;;;;;;3.3;3;;;;;;;12.72;95.24414;95434.42;;;;
2022/09/04 03:38:56;;;;;;;3.3;3;;;;;;;12.72;95.24414;95434.42;;;;
2022/09/04 03:40:01;;;;;;;3.3;3;;;;;;;12.72;95.24414;95434.42;;;;
2022/09/04 03:41:17;;;;;;;4.399999;3.05;;;;;;;12.65;95.30371;95438.56;;;;
2022/09/04 03:42:25;;;;;;;4.399999;3.05;;;;;;;12.65;95.30371;95438.56;;;;
2022/09/04 03:43:34;;;;;;;4.399999;3.05;;;;;;;12.65;95.30371;95438.56;;;;
2022/09/04 03:44:48;;;;;;;4.399999;3.05;;;;;;;12.65;95.30371;95438.56;;;;
2022/09/04 03:46:04;;;;;;;4.399999;3.05;;;;;;;12.65;95.30371;95438.56;;;;
2022/09/04 03:47:22;;;;;;;4.399999;3.05;;;;;;;12.65;95.30371;95438.56;;;;
2022/09/04 03:48:35;;;;;;;4.399999;3.05;;;;;;;12.65;95.30371;95438.56;;;;
2022/09/04 03:49:55;;;;;;;4.399999;3.05;;;;;;;12.65;95.30371;95438.56;;;;
2022/09/04 03:51:09;;;;;;;4.399999;3.05;;;;;;;12.65;95.30371;95438.56;;;;
2022/09/04 03:52:17;;;;;;;3.35;3.05;;;;;;;12.66;95.50098;95445.92;;;;
2022/09/04 03:53:26;;;;;;;3.35;3.05;;;;;;;12.66;95.50098;95445.92;;;;
2022/09/04 03:54:34;;;;;;;3.35;3.05;;;;;;;12.66;95.50098;95445.92;;;;
2022/09/04 03:55:47;;;;;;;3.35;3.05;;;;;;;12.66;95.50098;95445.92;;;;
2022/09/04 03:58:07;;;;;;;3.35;3.05;;;;;;;12.66;95.50098;95445.92;;;;
2022/09/04 03:59:19;;;;;;;3.35;3.05;;;;;;;12.66;95.50098;95445.92;;;;
2022/09/04 04:00:38;;;;;;;3.35;3.05;;;;;;;12.66;95.50098;95445.92;;;;
2022/09/04 04:01:50;;;;;;;3.35;3.05;;;;;;;12.66;95.50098;95445.92;;;;
2022/09/04 04:03:01;;;;;;;3.75;3;;;;;;;12.59;95.41113;95450.47;;;;
2022/09/04 04:04:15;;;;;;;3.75;3;;;;;;;12.59;95.41113;95450.47;;;;
2022/09/04 04:05:35;;;;;;;3.75;3;;;;;;;12.59;95.41113;95450.47;;;;
2022/09/04 04:06:42;;;;;;;3.75;3;;;;;;;12.59;95.41113;95450.47;;;;
2022/09/04 04:07:51;;;;;;;3.75;3;;;;;;;12.59;95.41113;95450.47;;;;
2022/09/04 04:09:10;;;;;;;3.75;3;;;;;;;12.59;95.41113;95450.47;;;;
2022/09/04 04:10:32;;;;;;;3.75;3;;;;;;;12.59;95.41113;95450.47;;;;
2022/09/04 04:11:44;;;;;;;3.75;3;;;;;;;12.59;95.41113;95450.47;;;;
2022/09/04 04:13:01;;;;;;;6.75;3.25;;;;;;;12.58;95.5791;95451.89;;;;
2022/09/04 04:14:17;;;;;;;6.75;3.25;;;;;;;12.58;95.5791;95451.89;;;;
2022/09/04 04:15:36;;;;;;;6.75;3.25;;;;;;;12.58;95.5791;95451.89;;;;
2022/09/04 04:16:50;;;;;;;6.75;3.25;;;;;;;12.58;95.5791;95451.89;;;;
2022/09/04 04:18:04;;;;;;;6.75;3.25;;;;;;;12.58;95.5791;95451.89;;;;
2022/09/04 04:19:20;;;;;;;6.75;3.25;;;;;;;12.58;95.5791;95451.89;;;;
2022/09/04 04:20:33;;;;;;;6.75;3.25;;;;;;;12.58;95.5791;95451.89;;;;
2022/09/04 04:21:54;;;;;;;6.75;3.25;;;;;;;12.58;95.5791;95451.89;;;;
2022/09/04 04:23:18;;;;;;;6.75;3.25;;;;;;;12.58;95.5791;95451.89;;;;
2022/09/04 04:28:39;;;;;;;4.2;3.5;;;;;;;12.53;95.57129;95461.83;;;;
2022/09/04 04:31:13;;;;;;;4.2;3.5;;;;;;;12.53;95.57129;95461.83;;;;
2022/09/04 04:32:23;;;;;;;4.2;3.5;;;;;;;12.53;95.57129;95461.83;;;;
2022/09/04 04:33:40;;;;;;;4.2;3.5;;;;;;;12.53;95.57129;95461.83;;;;
2022/09/04 04:34:54;;;;;;;3.7;3.35;;;;;;;12.58;95.83887;95475.25;;;;
2022/09/04 04:36:08;;;;;;;3.7;3.35;;;;;;;12.58;95.83887;95475.25;;;;
2022/09/04 04:37:18;;;;;;;3.7;3.35;;;;;;;12.58;95.83887;95475.25;;;;
2022/09/04 04:38:30;;;;;;;3.7;3.35;;;;;;;12.58;95.83887;95475.25;;;;
2022/09/04 04:39:42;;;;;;;3.7;3.35;;;;;;;12.58;95.83887;95475.25;;;;
2022/09/04 04:40:51;;;;;;;3.7;3.35;;;;;;;12.58;95.83887;95475.25;;;;
2022/09/04 04:42:04;;;;;;;3.7;3.35;;;;;;;12.58;95.83887;95475.25;;;;
2022/09/04 04:43:19;;;;;;;3.7;3.35;;;;;;;12.58;95.83887;95475.25;;;;
2022/09/04 04:45:48;;;;;;;3.7;3.35;;;;;;;12.58;95.83887;95475.25;;;;
2022/09/04 04:46:56;;;;;;;4.15;3.75;;;;;;;12.6;95.82129;95492.68;;;;
2022/09/04 04:48:07;;;;;;;4.15;3.75;;;;;;;12.6;95.82129;95492.68;;;;
2022/09/04 04:49:58;;;;;;;4.15;3.75;;;;;;;12.6;95.82129;95492.68;;;;
2022/09/04 04:51:07;;;;;;;4.15;3.75;;;;;;;12.6;95.82129;95492.68;;;;
2022/09/04 04:52:21;;;;;;;4.15;3.75;;;;;;;12.6;95.82129;95492.68;;;;
2022/09/04 04:53:32;;;;;;;4.15;3.75;;;;;;;12.6;95.82129;95492.68;;;;
2022/09/04 04:54:41;;;;;;;4.15;3.75;;;;;;;12.6;95.82129;95492.68;;;;
2022/09/04 04:55:56;;;;;;;4.2;3.8;;;;;;;12.74;96.0752;95504.89;;;;
2022/09/04 04:57:04;;;;;;;4.2;3.8;;;;;;;12.74;96.0752;95504.89;;;;
2022/09/04 04:58:11;;;;;;;4.2;3.8;;;;;;;12.74;96.0752;95504.89;;;;
2022/09/04 04:59:24;;;;;;;4.2;3.8;;;;;;;12.74;96.0752;95504.89;;;;
2022/09/04 05:00:35;;;;;;;4.2;3.8;;;;;;;12.74;96.0752;95504.89;;;;
2022/09/04 05:01:42;;;;;;;4.2;3.8;;;;;;;12.74;96.0752;95504.89;;;;
2022/09/04 05:02:52;;;;;;;4.2;3.8;;;;;;;12.74;96.0752;95504.89;;;;
2022/09/04 05:04:05;;;;;;;4.2;3.8;;;;;;;12.74;96.0752;95504.89;;;;
2022/09/04 05:05:12;;;;;;;4.2;3.8;;;;;;;12.74;96.0752;95504.89;;;;
2022/09/04 05:06:20;;;;;;;4.050001;3.65;;;;;;;12.81;95.97363;95513.48;;;;
2022/09/04 05:07:34;;;;;;;4.050001;3.65;;;;;;;12.81;95.97363;95513.48;;;;
2022/09/04 05:08:42;;;;;;;4.050001;3.65;;;;;;;12.81;95.97363;95513.48;;;;
2022/09/04 05:09:49;;;;;;;4.050001;3.65;;;;;;;12.81;95.97363;95513.48;;;;
2022/09/04 05:10:56;;;;;;;4.050001;3.65;;;;;;;12.81;95.97363;95513.48;;;;
2022/09/04 05:12:03;;;;;;;4.050001;3.65;;;;;;;12.81;95.97363;95513.48;;;;
2022/09/04 05:13:14;;;;;;;4.050001;3.65;;;;;;;12.81;95.97363;95513.48;;;;
2022/09/04 05:14:24;;;;;;;4.050001;3.65;;;;;;;12.81;95.97363;95513.48;;;;
2022/09/04 05:15:40;;;;;;;4.050001;3.65;;;;;;;12.81;95.97363;95513.48;;;;
2022/09/04 05:16:47;;;;;;;4.149999;3.75;;;;;;;12.96;96.16797;95538.75;;;;
2022/09/04 05:17:55;;;;;;;4.149999;3.75;;;;;;;12.96;96.16797;95538.75;;;;
2022/09/04 05:19:00;;;;;;;4.149999;3.75;;;;;;;12.96;96.16797;95538.75;;;;
2022/09/04 05:20:09;;;;;;;4.149999;3.75;;;;;;;12.96;96.16797;95538.75;;;;
2022/09/04 05:21:36;;;;;;;4.149999;3.75;;;;;;;12.96;96.16797;95538.75;;;;
2022/09/04 05:22:46;;;;;;;4.149999;3.75;;;;;;;12.96;96.16797;95538.75;;;;
2022/09/04 05:23:55;;;;;;;4.149999;3.75;;;;;;;12.96;96.16797;95538.75;;;;
2022/09/04 05:25:03;;;;;;;4.149999;3.75;;;;;;;12.96;96.16797;95538.75;;;;
2022/09/04 05:26:10;;;;;;;4.149999;3.75;;;;;;;12.96;96.16797;95538.75;;;;
2022/09/04 05:27:27;;;;;;;3.95;3.55;;;;;;;13.11;96.07324;95539.61;;;;
2022/09/04 05:29:15;;;;;;;3.95;3.55;;;;;;;13.11;96.07324;95539.61;;;;
2022/09/04 05:30:22;;;;;;;3.95;3.55;;;;;;;13.11;96.07324;95539.61;;;;
2022/09/04 05:31:32;;;;;;;3.95;3.55;;;;;;;13.11;96.07324;95539.61;;;;
2022/09/04 05:32:44;;;;;;;3.95;3.55;;;;;;;13.11;96.07324;95539.61;;;;
2022/09/04 05:33:54;;;;;;;3.95;3.55;;;;;;;13.11;96.07324;95539.61;;;;
2022/09/04 05:35:03;;;;;;;3.95;3.55;;;;;;;13.11;96.07324;95539.61;;;;
2022/09/04 05:36:12;;;;;;;3.95;3.55;;;;;;;13.11;96.07324;95539.61;;;;
2022/09/04 05:37:23;;;;;;;3.95;3.55;;;;;;;13.11;96.07324;95539.61;;;;
2022/09/04 05:38:31;;;;;;;3.85;3.55;;;;;;;13.33;96.15234;95556.84;;;;
2022/09/04 05:39:40;;;;;;;3.85;3.55;;;;;;;13.33;96.15234;95556.84;;;;
2022/09/04 05:40:57;;;;;;;3.85;3.55;;;;;;;13.33;96.15234;95556.84;;;;
2022/09/04 05:42:04;;;;;;;3.85;3.55;;;;;;;13.33;96.15234;95556.84;;;;
2022/09/04 05:43:20;;;;;;;3.85;3.55;;;;;;;13.33;96.15234;95556.84;;;;
2022/09/04 05:44:32;;;;;;;3.85;3.55;;;;;;;13.33;96.15234;95556.84;;;;
2022/09/04 05:45:46;;;;;;;3.85;3.55;;;;;;;13.33;96.15234;95556.84;;;;
2022/09/04 05:46:57;;;;;;;3.85;3.55;;;;;;;13.33;96.15234;95556.84;;;;
2022/09/04 05:48:07;;;;;;;3.85;3.55;;;;;;;13.33;96.15234;95556.84;;;;
2022/09/04 05:49:17;;;;;;;4.55;3.6;;;;;;;13.53;95.94629;95567.64;;;;
2022/09/04 05:50:30;;;;;;;4.55;3.6;;;;;;;13.53;95.94629;95567.64;;;;
2022/09/04 05:55:52;;;;;;;4.55;3.6;;;;;;;13.53;95.94629;95567.64;;;;
2022/09/04 05:57:12;;;;;;;4.55;3.6;;;;;;;13.53;95.94629;95567.64;;;;
2022/09/04 05:58:24;;;;;;;4.55;3.6;;;;;;;13.53;95.94629;95567.64;;;;
2022/09/04 05:59:37;;;;;;;4.299999;3.75;;;;;;;13.8;96.11523;95566.16;;;;
2022/09/04 06:00:59;;;;;;;4.299999;3.75;;;;;;;13.8;96.11523;95566.16;;;;
2022/09/04 06:02:14;;;;;;;4.299999;3.75;;;;;;;13.8;96.11523;95566.16;;;;
2022/09/04 06:03:39;;;;;;;4.299999;3.75;;;;;;;13.8;96.11523;95566.16;;;;
2022/09/04 06:04:57;;;;;;;4.299999;3.75;;;;;;;13.8;96.11523;95566.16;;;;
2022/09/04 06:06:12;;;;;;;4.299999;3.75;;;;;;;13.8;96.11523;95566.16;;;;
2022/09/04 06:07:20;;;;;;;4.299999;3.75;;;;;;;13.8;96.11523;95566.16;;;;
2022/09/04 06:08:28;;;;;;;4.299999;3.75;;;;;;;13.8;96.11523;95566.16;;;;
2022/09/04 06:09:40;;;;;;;4.299999;3.75;;;;;;;13.8;96.11523;95566.16;;;;
2022/09/04 06:10:57;;;;;;;3.95;3.55;;;;;;;14.09;95.99512;95590.19;;;;
2022/09/04 06:12:21;;;;;;;3.95;3.55;;;;;;;14.09;95.99512;95590.19;;;;
2022/09/04 06:13:34;;;;;;;3.95;3.55;;;;;;;14.09;95.99512;95590.19;;;;
2022/09/04 06:14:57;;;;;;;3.95;3.55;;;;;;;14.09;95.99512;95590.19;;;;
2022/09/04 06:16:11;;;;;;;3.95;3.55;;;;;;;14.09;95.99512;95590.19;;;;
2022/09/04 06:17:30;;;;;;;3.95;3.55;;;;;;;14.09;95.99512;95590.19;;;;
2022/09/04 06:18:49;;;;;;;3.95;3.55;;;;;;;14.09;95.99512;95590.19;;;;
2022/09/04 06:20:07;;;;;;;3.95;3.55;;;;;;;14.09;95.99512;95590.19;;;;
2022/09/04 06:21:23;;;;;;;3.8;3.5;;;;;;;14.52;96.19629;95600.11;;;;
2022/09/04 06:22:58;;;;;;;3.8;3.5;;;;;;;14.52;96.19629;95600.11;;;;
2022/09/04 06:24:49;;;;;;;3.8;3.5;;;;;;;14.52;96.19629;95600.11;;;;
2022/09/04 06:26:07;;;;;;;3.8;3.5;;;;;;;14.52;96.19629;95600.11;;;;
2022/09/04 06:27:22;;;;;;;3.8;3.5;;;;;;;14.52;96.19629;95600.11;;;;
2022/09/04 06:28:37;;;;;;;3.8;3.5;;;;;;;14.52;96.19629;95600.11;;;;
2022/09/04 06:29:53;;;;;;;3.8;3.5;;;;;;;14.52;96.19629;95600.11;;;;
2022/09/04 06:31:03;;;;;;;3.8;3.5;;;;;;;14.52;96.19629;95600.11;;;;
2022/09/04 06:32:13;;;;;;;3.5;3.25;;;;;;;15.65;95.63184;95600.1;;;;
2022/09/04 06:33:30;;;;;;;3.5;3.25;;;;;;;15.65;95.63184;95600.1;;;;
2022/09/04 06:34:43;;;;;;;3.5;3.25;;;;;;;15.65;95.63184;95600.1;;;;
2022/09/04 06:36:03;;;;;;;3.5;3.25;;;;;;;15.65;95.63184;95600.1;;;;
2022/09/04 06:37:29;;;;;;;3.5;3.25;;;;;;;15.65;95.63184;95600.1;;;;
2022/09/04 06:38:39;;;;;;;3.5;3.25;;;;;;;15.65;95.63184;95600.1;;;;
2022/09/04 06:39:59;;;;;;;3.5;3.25;;;;;;;15.65;95.63184;95600.1;;;;
2022/09/04 06:41:12;;;;;;;3.5;3.25;;;;;;;15.65;95.63184;95600.1;;;;
2022/09/04 06:42:28;;;;;;;3.199999;2.8;;;;;;;17.38;92.6123;95600.6;;;;
2022/09/04 06:43:46;;;;;;;3.199999;2.8;;;;;;;17.38;92.6123;95600.6;;;;
2022/09/04 06:44:53;;;;;;;3.199999;2.8;;;;;;;17.38;92.6123;95600.6;;;;
2022/09/04 06:46:07;;;;;;;3.199999;2.8;;;;;;;17.38;92.6123;95600.6;;;;
2022/09/04 06:47:19;;;;;;;3.199999;2.8;;;;;;;17.38;92.6123;95600.6;;;;
2022/09/04 06:48:28;;;;;;;3.199999;2.8;;;;;;;17.38;92.6123;95600.6;;;;
2022/09/04 06:49:43;;;;;;;3.199999;2.8;;;;;;;17.38;92.6123;95600.6;;;;
2022/09/04 06:51:00;;;;;;;3.199999;2.8;;;;;;;17.38;92.6123;95600.6;;;;
2022/09/04 06:52:18;;;;;;;3.199999;2.8;;;;;;;17.38;92.6123;95600.6;;;;
2022/09/04 06:53:28;;;;;;;3.6;2.45;;;;;;;18.88;90.18555;95610.55;;;;
2022/09/04 06:54:38;;;;;;;3.6;2.45;;;;;;;18.88;90.18555;95610.55;;;;
2022/09/04 06:55:48;;;;;;;3.6;2.45;;;;;;;18.88;90.18555;95610.55;;;;
2022/09/04 06:57:02;;;;;;;3.6;2.45;;;;;;;18.88;90.18555;95610.55;;;;
2022/09/04 06:58:22;;;;;;;3.6;2.45;;;;;;;18.88;90.18555;95610.55;;;;
2022/09/04 06:59:46;;;;;;;3.6;2.45;;;;;;;18.88;90.18555;95610.55;;;;
2022/09/04 07:00:58;;;;;;;3.6;2.45;;;;;;;18.88;90.18555;95610.55;;;;
2022/09/04 07:02:04;;;;;;;3.6;2.45;;;;;;;18.88;90.18555;95610.55;;;;
2022/09/04 07:03:18;;;;;;;3.6;2.45;;;;;;;18.88;90.18555;95610.55;;;;
2022/09/04 07:04:37;;;;;;;2.5;2.3;;;;;;;20.22;88.23535;95615.58;;;;
2022/09/04 07:05:50;;;;;;;2.5;2.3;;;;;;;20.22;88.23535;95615.58;;;;